createdAt,value
2019-01-13T00:00:54.681Z,0.00
2019-01-13T00:01:54.556Z,0.00
2019-01-13T00:02:54.454Z,0.00
2019-01-13T00:03:54.350Z,0.00
2019-01-13T00:04:54.249Z,0.00
2019-01-13T00:05:54.161Z,0.00
2019-01-13T00:06:54.043Z,0.00
2019-01-13T00:07:53.938Z,0.00
2019-01-13T00:08:53.841Z,0.00
2019-01-13T00:09:53.734Z,0.00
2019-01-13T00:10:53.646Z,0.00
2019-01-13T00:11:53.578Z,0.00
2019-01-13T00:12:53.424Z,0.00
2019-01-13T00:13:53.323Z,0.00
2019-01-13T00:14:53.224Z,0.00
2019-01-13T00:15:53.132Z,0.00
2019-01-13T00:16:53.013Z,0.00
2019-01-13T00:17:52.917Z,0.00
2019-01-13T00:18:52.808Z,0.00
2019-01-13T00:19:52.704Z,0.00
2019-01-13T00:20:52.623Z,0.00
2019-01-13T00:21:52.499Z,0.00
2019-01-13T00:22:52.400Z,0.00
2019-01-13T00:23:52.295Z,0.00
2019-01-13T00:24:52.196Z,0.00
2019-01-13T00:25:52.112Z,0.00
2019-01-13T00:26:51.988Z,0.00
2019-01-13T00:27:51.883Z,0.00
2019-01-13T00:28:51.784Z,0.00
2019-01-13T00:29:51.682Z,0.00
2019-01-13T00:30:51.590Z,0.00
2019-01-13T00:31:51.472Z,0.00
2019-01-13T00:32:51.375Z,0.00
2019-01-13T00:33:51.275Z,0.00
2019-01-13T00:34:51.163Z,0.00
2019-01-13T00:35:51.081Z,0.00
2019-01-13T00:36:50.958Z,0.00
2019-01-13T00:37:50.887Z,0.00
2019-01-13T00:38:50.757Z,0.00
2019-01-13T00:39:50.673Z,0.00
2019-01-13T00:40:53.634Z,0.00
2019-01-13T00:41:50.445Z,0.00
2019-01-13T00:42:50.341Z,0.00
2019-01-13T00:43:50.239Z,0.00
2019-01-13T00:44:50.135Z,0.00
2019-01-13T00:45:50.050Z,0.00
2019-01-13T00:46:49.940Z,0.00
2019-01-13T00:47:49.833Z,0.00
2019-01-13T00:48:49.730Z,0.00
2019-01-13T00:49:49.626Z,0.00
2019-01-13T00:50:49.521Z,0.00
2019-01-13T00:51:49.547Z,0.00
2019-01-13T00:52:49.316Z,0.00
2019-01-13T00:53:49.214Z,0.00
2019-01-13T00:54:49.113Z,0.00
2019-01-13T00:55:49.008Z,0.00
2019-01-13T00:56:48.923Z,0.00
2019-01-13T00:57:48.802Z,0.00
2019-01-13T00:58:48.802Z,0.00
2019-01-13T00:59:48.599Z,0.00
2019-01-13T01:00:48.498Z,0.00
2019-01-13T01:01:48.411Z,0.00
2019-01-13T01:02:48.289Z,0.00
2019-01-13T01:03:48.185Z,0.00
2019-01-13T01:04:48.086Z,0.00
2019-01-13T01:05:48.086Z,0.00
2019-01-13T01:06:47.894Z,0.00
2019-01-13T01:07:47.780Z,0.00
2019-01-13T01:08:47.681Z,0.00
2019-01-13T01:09:47.569Z,0.00
2019-01-13T01:10:47.475Z,0.00
2019-01-13T01:11:47.386Z,0.00
2019-01-13T01:12:47.367Z,0.00
2019-01-13T01:13:47.165Z,0.00
2019-01-13T01:14:47.059Z,0.00
2019-01-13T01:15:46.959Z,0.00
2019-01-13T01:16:46.872Z,0.00
2019-01-13T01:17:46.750Z,0.00
2019-01-13T01:18:46.645Z,0.00
2019-01-13T01:19:46.651Z,0.00
2019-01-13T01:20:46.444Z,0.00
2019-01-13T01:21:46.353Z,0.00
2019-01-13T01:22:46.235Z,0.00
2019-01-13T01:23:46.136Z,0.00
2019-01-13T01:24:46.030Z,0.00
2019-01-13T01:25:45.928Z,0.00
2019-01-13T01:26:45.943Z,0.00
2019-01-13T01:27:45.724Z,0.00
2019-01-13T01:28:45.622Z,0.00
2019-01-13T01:29:45.518Z,0.00
2019-01-13T01:30:45.418Z,0.00
2019-01-13T01:31:45.332Z,0.00
2019-01-13T01:32:45.211Z,0.00
2019-01-13T01:33:45.214Z,0.00
2019-01-13T01:34:45.007Z,0.00
2019-01-13T01:35:44.904Z,0.00
2019-01-13T01:36:44.960Z,0.00
2019-01-13T01:37:44.703Z,0.00
2019-01-13T01:38:44.593Z,0.00
2019-01-13T01:39:44.489Z,0.00
2019-01-13T01:40:44.491Z,0.00
2019-01-13T01:41:44.303Z,0.00
2019-01-13T01:42:44.186Z,0.00
2019-01-13T01:43:44.079Z,0.00
2019-01-13T01:44:43.981Z,0.00
2019-01-13T01:45:43.873Z,0.00
2019-01-13T01:46:43.905Z,0.00
2019-01-13T01:47:43.674Z,0.00
2019-01-13T01:48:43.569Z,0.00
2019-01-13T01:49:43.465Z,0.00
2019-01-13T01:50:43.366Z,0.00
2019-01-13T01:51:43.329Z,0.00
2019-01-13T01:52:43.161Z,0.00
2019-01-13T01:53:43.053Z,0.00
2019-01-13T01:54:43.051Z,0.00
2019-01-13T01:55:42.849Z,0.00
2019-01-13T01:56:42.763Z,0.00
2019-01-13T01:57:42.646Z,0.00
2019-01-13T01:58:42.540Z,0.00
2019-01-13T01:59:42.440Z,0.00
2019-01-13T02:00:42.338Z,0.00
2019-01-13T02:01:42.252Z,0.00
2019-01-13T02:02:42.138Z,0.00
2019-01-13T02:03:42.026Z,0.00
2019-01-13T02:04:41.935Z,0.00
2019-01-13T02:05:41.824Z,0.00
2019-01-13T02:06:41.734Z,0.00
2019-01-13T02:07:41.636Z,0.00
2019-01-13T02:08:41.516Z,0.00
2019-01-13T02:09:41.415Z,0.00
2019-01-13T02:10:41.309Z,0.00
2019-01-13T02:11:41.255Z,0.00
2019-01-13T02:12:41.102Z,0.00
2019-01-13T02:13:41.003Z,0.00
2019-01-13T02:14:40.895Z,0.00
2019-01-13T02:15:40.793Z,0.00
2019-01-13T02:16:40.712Z,0.00
2019-01-13T02:17:40.589Z,0.00
2019-01-13T02:18:40.488Z,0.00
2019-01-13T02:19:40.384Z,0.00
2019-01-13T02:20:40.281Z,0.00
2019-01-13T02:21:40.202Z,0.00
2019-01-13T02:22:40.078Z,0.00
2019-01-13T02:23:39.974Z,0.00
2019-01-13T02:24:39.873Z,0.00
2019-01-13T02:25:39.768Z,0.00
2019-01-13T02:26:39.683Z,0.00
2019-01-13T02:27:39.564Z,0.00
2019-01-13T02:28:39.460Z,0.00
2019-01-13T02:29:39.355Z,0.00
2019-01-13T02:30:39.256Z,0.00
2019-01-13T02:31:39.171Z,0.00
2019-01-13T02:32:39.051Z,0.00
2019-01-13T02:33:38.951Z,0.00
2019-01-13T02:34:38.843Z,0.00
2019-01-13T02:35:38.740Z,0.00
2019-01-13T02:36:38.646Z,0.00
2019-01-13T02:37:38.551Z,0.00
2019-01-13T02:38:38.435Z,0.00
2019-01-13T02:39:38.329Z,0.00
2019-01-13T02:40:38.227Z,0.00
2019-01-13T02:41:38.124Z,0.00
2019-01-13T02:42:38.036Z,0.00
2019-01-13T02:43:37.921Z,0.00
2019-01-13T02:44:37.820Z,0.00
2019-01-13T02:45:37.712Z,0.00
2019-01-13T02:46:37.619Z,0.00
2019-01-13T02:47:37.526Z,0.00
2019-01-13T02:48:37.405Z,0.00
2019-01-13T02:49:37.304Z,0.00
2019-01-13T02:50:37.203Z,0.00
2019-01-13T02:51:37.098Z,0.00
2019-01-13T02:52:37.017Z,0.00
2019-01-13T02:53:36.894Z,0.00
2019-01-13T02:54:36.787Z,0.00
2019-01-13T02:55:36.687Z,0.00
2019-01-13T02:56:36.586Z,0.00
2019-01-13T02:57:36.496Z,0.00
2019-01-13T02:58:36.394Z,0.00
2019-01-13T02:59:36.278Z,0.00
2019-01-13T03:00:36.172Z,0.00
2019-01-13T03:01:36.075Z,0.00
2019-01-13T03:02:35.985Z,0.00
2019-01-13T03:03:35.866Z,0.00
2019-01-13T03:04:36.065Z,0.00
2019-01-13T03:05:35.667Z,0.00
2019-01-13T03:06:35.568Z,0.00
2019-01-13T03:07:35.470Z,0.00
2019-01-13T03:08:35.357Z,0.00
2019-01-13T03:09:35.247Z,0.00
2019-01-13T03:10:35.150Z,0.00
2019-01-13T03:11:35.053Z,0.00
2019-01-13T03:12:34.957Z,0.00
2019-01-13T03:13:34.839Z,0.00
2019-01-13T03:14:34.735Z,0.00
2019-01-13T03:15:34.639Z,0.00
2019-01-13T03:16:34.534Z,0.00
2019-01-13T03:17:34.509Z,0.00
2019-01-13T03:18:34.327Z,0.00
2019-01-13T03:19:34.223Z,0.00
2019-01-13T03:20:34.120Z,0.00
2019-01-13T03:21:34.016Z,0.00
2019-01-13T03:22:33.933Z,0.00
2019-01-13T03:23:33.811Z,0.00
2019-01-13T03:24:33.714Z,0.00
2019-01-13T03:25:33.606Z,0.00
2019-01-13T03:26:33.506Z,0.00
2019-01-13T03:27:33.433Z,0.00
2019-01-13T03:28:33.299Z,0.00
2019-01-13T03:29:33.196Z,0.00
2019-01-13T03:30:33.096Z,0.00
2019-01-13T03:31:32.995Z,0.00
2019-01-13T03:32:33.017Z,0.00
2019-01-13T03:33:32.788Z,0.00
2019-01-13T03:34:32.687Z,0.00
2019-01-13T03:35:32.581Z,0.00
2019-01-13T03:36:32.476Z,0.00
2019-01-13T03:37:32.390Z,0.00
2019-01-13T03:38:32.273Z,0.00
2019-01-13T03:39:32.276Z,0.00
2019-01-13T03:40:32.069Z,0.00
2019-01-13T03:41:31.965Z,0.00
2019-01-13T03:42:31.878Z,0.00
2019-01-13T03:43:31.761Z,0.00
2019-01-13T03:44:31.657Z,0.00
2019-01-13T03:45:31.553Z,0.00
2019-01-13T03:46:31.564Z,0.00
2019-01-13T03:47:31.365Z,0.00
2019-01-13T03:48:31.246Z,0.00
2019-01-13T03:49:31.142Z,0.00
2019-01-13T03:50:31.039Z,0.00
2019-01-13T03:51:30.948Z,0.00
2019-01-13T03:52:30.854Z,0.00
2019-01-13T03:53:30.864Z,0.00
2019-01-13T03:54:30.631Z,0.00
2019-01-13T03:55:30.526Z,0.00
2019-01-13T03:56:30.426Z,0.00
2019-01-13T03:57:30.338Z,0.00
2019-01-13T03:58:30.219Z,0.00
2019-01-13T03:59:30.119Z,0.00
2019-01-13T04:00:30.122Z,0.00
2019-01-13T04:01:29.909Z,0.00
2019-01-13T04:02:29.827Z,0.00
2019-01-13T04:03:29.708Z,0.00
2019-01-13T04:04:29.605Z,0.00
2019-01-13T04:05:29.499Z,0.00
2019-01-13T04:06:29.398Z,0.00
2019-01-13T04:07:29.416Z,0.00
2019-01-13T04:08:29.198Z,0.00
2019-01-13T04:09:29.088Z,0.00
2019-01-13T04:10:28.986Z,0.00
2019-01-13T04:11:28.887Z,0.00
2019-01-13T04:12:28.798Z,0.00
2019-01-13T04:13:28.678Z,0.00
2019-01-13T04:14:28.680Z,0.00
2019-01-13T04:15:28.479Z,0.00
2019-01-13T04:16:28.375Z,0.00
2019-01-13T04:17:28.285Z,0.00
2019-01-13T04:18:28.167Z,0.00
2019-01-13T04:19:28.066Z,0.00
2019-01-13T04:20:27.965Z,0.00
2019-01-13T04:21:27.981Z,0.00
2019-01-13T04:22:27.761Z,0.00
2019-01-13T04:23:27.668Z,0.00
2019-01-13T04:24:27.554Z,0.00
2019-01-13T04:25:27.448Z,0.00
2019-01-13T04:26:27.348Z,0.00
2019-01-13T04:27:27.250Z,0.00
2019-01-13T04:28:27.260Z,0.00
2019-01-13T04:29:27.042Z,0.00
2019-01-13T04:30:26.938Z,0.00
2019-01-13T04:31:27.145Z,0.00
2019-01-13T04:32:26.736Z,0.00
2019-01-13T04:33:26.643Z,0.00
2019-01-13T04:34:26.531Z,0.00
2019-01-13T04:35:26.531Z,0.00
2019-01-13T04:36:26.324Z,0.00
2019-01-13T04:37:26.222Z,0.00
2019-01-13T04:38:26.135Z,0.00
2019-01-13T04:39:26.033Z,0.00
2019-01-13T04:40:25.917Z,0.00
2019-01-13T04:41:25.810Z,0.00
2019-01-13T04:42:25.815Z,0.00
2019-01-13T04:43:25.625Z,0.00
2019-01-13T04:44:25.500Z,0.00
2019-01-13T04:45:25.400Z,0.00
2019-01-13T04:46:25.294Z,0.00
2019-01-13T04:47:25.194Z,0.00
2019-01-13T04:48:25.215Z,0.00
2019-01-13T04:49:24.994Z,0.00
2019-01-13T04:50:24.890Z,0.00
2019-01-13T04:51:24.785Z,0.00
2019-01-13T04:52:24.682Z,0.00
2019-01-13T04:53:24.599Z,0.00
2019-01-13T04:54:24.478Z,0.00
2019-01-13T04:55:24.377Z,0.00
2019-01-13T04:56:24.273Z,0.00
2019-01-13T04:57:24.166Z,0.00
2019-01-13T04:58:24.081Z,0.00
2019-01-13T04:59:23.964Z,0.00
2019-01-13T05:00:23.865Z,0.00
2019-01-13T05:01:23.759Z,0.00
2019-01-13T05:02:23.658Z,0.00
2019-01-13T05:03:23.571Z,0.00
2019-01-13T05:04:23.449Z,0.00
2019-01-13T05:05:23.350Z,0.00
2019-01-13T05:06:23.244Z,0.00
2019-01-13T05:07:23.146Z,0.00
2019-01-13T05:08:23.060Z,0.00
2019-01-13T05:09:22.937Z,0.00
2019-01-13T05:10:22.839Z,0.00
2019-01-13T05:11:22.733Z,0.00
2019-01-13T05:12:22.631Z,0.00
2019-01-13T05:13:22.548Z,0.00
2019-01-13T05:14:22.425Z,0.00
2019-01-13T05:15:22.321Z,0.00
2019-01-13T05:16:22.223Z,0.00
2019-01-13T05:17:22.119Z,0.00
2019-01-13T05:18:22.035Z,0.00
2019-01-13T05:19:21.915Z,0.00
2019-01-13T05:20:21.811Z,0.00
2019-01-13T05:21:21.709Z,0.00
2019-01-13T05:22:21.610Z,0.00
2019-01-13T05:23:21.522Z,0.00
2019-01-13T05:24:21.407Z,0.00
2019-01-13T05:25:21.306Z,0.00
2019-01-13T05:26:21.195Z,0.00
2019-01-13T05:27:21.098Z,0.00
2019-01-13T05:28:21.013Z,0.00
2019-01-13T05:29:20.886Z,0.00
2019-01-13T05:30:20.788Z,0.00
2019-01-13T05:31:20.690Z,0.00
2019-01-13T05:32:20.579Z,0.00
2019-01-13T05:33:20.501Z,0.00
2019-01-13T05:34:20.378Z,0.00
2019-01-13T05:35:20.281Z,0.00
2019-01-13T05:36:20.175Z,0.00
2019-01-13T05:37:20.067Z,0.00
2019-01-13T05:38:19.985Z,0.00
2019-01-13T05:39:19.866Z,0.00
2019-01-13T05:40:19.761Z,0.00
2019-01-13T05:41:19.662Z,0.00
2019-01-13T05:42:19.554Z,0.00
2019-01-13T05:43:19.471Z,0.00
2019-01-13T05:44:19.352Z,0.00
2019-01-13T05:45:19.249Z,0.00
2019-01-13T05:46:19.161Z,0.00
2019-01-13T05:47:19.046Z,0.00
2019-01-13T05:48:18.958Z,0.00
2019-01-13T05:49:18.836Z,0.00
2019-01-13T05:50:18.738Z,0.00
2019-01-13T05:51:18.634Z,0.00
2019-01-13T05:52:18.533Z,0.00
2019-01-13T05:53:18.446Z,0.00
2019-01-13T05:54:18.326Z,0.00
2019-01-13T05:55:18.252Z,0.00
2019-01-13T05:56:18.119Z,0.00
2019-01-13T05:57:18.018Z,0.00
2019-01-13T05:58:17.935Z,0.00
2019-01-13T05:59:17.815Z,0.00
2019-01-13T06:00:17.762Z,0.00
2019-01-13T06:01:17.608Z,0.00
2019-01-13T06:02:17.503Z,0.00
2019-01-13T06:03:17.424Z,0.00
2019-01-13T06:04:17.305Z,0.00
2019-01-13T06:05:17.294Z,0.00
2019-01-13T06:06:17.097Z,0.00
2019-01-13T06:07:16.991Z,0.00
2019-01-13T06:08:16.910Z,0.00
2019-01-13T06:09:16.791Z,0.00
2019-01-13T06:10:16.688Z,0.00
2019-01-13T06:11:16.581Z,0.00
2019-01-13T06:12:16.484Z,0.00
2019-01-13T06:13:16.382Z,0.00
2019-01-13T06:14:16.292Z,0.00
2019-01-13T06:15:16.171Z,0.00
2019-01-13T06:16:16.071Z,0.00
2019-01-13T06:17:15.968Z,0.00
2019-01-13T06:18:15.869Z,0.00
2019-01-13T06:19:15.884Z,0.00
2019-01-13T06:20:15.659Z,0.00
2019-01-13T06:21:15.556Z,0.00
2019-01-13T06:22:15.457Z,0.00
2019-01-13T06:23:15.353Z,0.00
2019-01-13T06:24:15.270Z,0.00
2019-01-13T06:25:15.146Z,0.00
2019-01-13T06:26:15.148Z,0.00
2019-01-13T06:27:14.945Z,0.00
2019-01-13T06:28:14.846Z,0.00
2019-01-13T06:29:14.753Z,0.00
2019-01-13T06:30:14.633Z,0.00
2019-01-13T06:31:14.535Z,0.00
2019-01-13T06:32:14.448Z,0.00
2019-01-13T06:33:14.456Z,0.00
2019-01-13T06:34:14.244Z,0.00
2019-01-13T06:35:14.126Z,0.00
2019-01-13T06:36:14.021Z,4.00
2019-01-13T06:37:13.918Z,4.00
2019-01-13T06:38:13.817Z,0.00
2019-01-13T06:39:13.728Z,0.00
2019-01-13T06:40:13.719Z,4.00
2019-01-13T06:41:13.508Z,4.00
2019-01-13T06:42:13.407Z,4.00
2019-01-13T06:43:13.304Z,8.00
2019-01-13T06:44:13.216Z,8.00
2019-01-13T06:45:13.098Z,8.00
2019-01-13T06:46:12.994Z,8.00
2019-01-13T06:47:12.996Z,12.00
2019-01-13T06:48:12.790Z,12.00
2019-01-13T06:49:12.705Z,16.00
2019-01-13T06:50:12.588Z,16.00
2019-01-13T06:51:12.485Z,20.00
2019-01-13T06:52:12.379Z,24.00
2019-01-13T06:53:12.277Z,24.00
2019-01-13T06:54:12.296Z,32.00
2019-01-13T06:55:12.074Z,40.00
2019-01-13T06:56:11.970Z,44.00
2019-01-13T06:57:11.868Z,52.00
2019-01-13T06:58:11.766Z,56.00
2019-01-13T06:59:11.679Z,60.00
2019-01-13T07:00:11.584Z,68.00
2019-01-13T07:01:11.571Z,84.00
2019-01-13T07:02:11.369Z,108.00
2019-01-13T07:03:11.253Z,120.00
2019-01-13T07:04:11.168Z,128.00
2019-01-13T07:05:11.051Z,140.00
2019-01-13T07:06:10.947Z,152.00
2019-01-13T07:07:10.845Z,156.00
2019-01-13T07:08:10.851Z,176.00
2019-01-13T07:09:10.659Z,192.00
2019-01-13T07:10:10.541Z,192.00
2019-01-13T07:11:10.439Z,220.00
2019-01-13T07:12:10.334Z,252.00
2019-01-13T07:13:10.234Z,304.00
2019-01-13T07:14:10.148Z,380.00
2019-01-13T07:15:10.135Z,348.00
2019-01-13T07:16:09.928Z,328.00
2019-01-13T07:17:09.826Z,284.00
2019-01-13T07:18:09.724Z,292.00
2019-01-13T07:19:09.635Z,300.00
2019-01-13T07:20:09.516Z,316.00
2019-01-13T07:21:09.415Z,344.00
2019-01-13T07:22:09.413Z,380.00
2019-01-13T07:23:09.212Z,316.00
2019-01-13T07:24:09.126Z,308.00
2019-01-13T07:25:09.006Z,308.00
2019-01-13T07:26:08.903Z,308.00
2019-01-13T07:27:08.802Z,316.00
2019-01-13T07:28:08.825Z,308.00
2019-01-13T07:29:08.617Z,336.00
2019-01-13T07:30:08.493Z,356.00
2019-01-13T07:31:08.391Z,348.00
2019-01-13T07:32:10.892Z,332.00
2019-01-13T07:33:08.187Z,344.00
2019-01-13T07:34:08.104Z,364.00
2019-01-13T07:35:07.983Z,400.00
2019-01-13T07:36:07.884Z,420.00
2019-01-13T07:37:07.781Z,428.00
2019-01-13T07:38:07.680Z,444.00
2019-01-13T07:39:07.596Z,452.00
2019-01-13T07:40:07.478Z,428.00
2019-01-13T07:41:07.375Z,472.00
2019-01-13T07:42:07.270Z,576.00
2019-01-13T07:43:07.167Z,628.00
2019-01-13T07:44:07.080Z,584.00
2019-01-13T07:45:06.960Z,552.00
2019-01-13T07:46:06.859Z,532.00
2019-01-13T07:47:06.762Z,504.00
2019-01-13T07:48:06.655Z,544.00
2019-01-13T07:49:06.560Z,612.00
2019-01-13T07:50:06.469Z,656.00
2019-01-13T07:51:06.349Z,700.00
2019-01-13T07:52:06.250Z,668.00
2019-01-13T07:53:06.148Z,732.00
2019-01-13T07:54:06.061Z,760.00
2019-01-13T07:55:05.939Z,740.00
2019-01-13T07:56:05.842Z,704.00
2019-01-13T07:57:05.738Z,716.00
2019-01-13T07:58:05.636Z,688.00
2019-01-13T07:59:05.536Z,724.00
2019-01-13T08:00:05.450Z,776.00
2019-01-13T08:01:05.332Z,948.00
2019-01-13T08:02:05.226Z,968.00
2019-01-13T08:03:05.127Z,940.00
2019-01-13T08:04:05.023Z,1048.00
2019-01-13T08:05:04.935Z,1136.00
2019-01-13T08:06:04.832Z,1196.00
2019-01-13T08:07:04.720Z,1084.00
2019-01-13T08:08:04.616Z,1048.00
2019-01-13T08:09:04.518Z,1140.00
2019-01-13T08:10:04.430Z,1208.00
2019-01-13T08:11:04.308Z,1268.00
2019-01-13T08:12:04.210Z,1552.00
2019-01-13T08:13:04.107Z,1780.00
2019-01-13T08:14:04.003Z,1852.00
2019-01-13T08:15:03.921Z,1732.00
2019-01-13T08:16:03.808Z,1856.00
2019-01-13T08:17:03.697Z,1892.00
2019-01-13T08:18:03.596Z,1948.00
2019-01-13T08:19:03.500Z,1872.00
2019-01-13T08:20:03.406Z,1820.00
2019-01-13T08:21:03.288Z,1700.00
2019-01-13T08:22:03.193Z,1680.00
2019-01-13T08:23:03.092Z,1644.00
2019-01-13T08:24:02.990Z,1696.00
2019-01-13T08:25:02.897Z,1816.00
2019-01-13T08:26:02.779Z,1824.00
2019-01-13T08:27:02.683Z,1804.00
2019-01-13T08:28:02.580Z,2036.00
2019-01-13T08:29:02.479Z,2060.00
2019-01-13T08:30:02.390Z,2232.00
2019-01-13T08:31:02.271Z,2244.00
2019-01-13T08:32:02.170Z,2140.00
2019-01-13T08:33:02.067Z,2252.00
2019-01-13T08:34:01.968Z,2408.00
2019-01-13T08:35:01.885Z,1936.00
2019-01-13T08:36:01.763Z,1816.00
2019-01-13T08:37:01.661Z,2088.00
2019-01-13T08:38:01.564Z,1652.00
2019-01-13T08:39:01.752Z,1708.00
2019-01-13T08:40:01.377Z,1816.00
2019-01-13T08:41:01.258Z,1756.00
2019-01-13T08:42:01.151Z,1628.00
2019-01-13T08:43:01.052Z,1756.00
2019-01-13T08:44:00.950Z,1536.00
2019-01-13T08:45:00.923Z,1488.00
2019-01-13T08:46:00.753Z,1432.00
2019-01-13T08:47:00.651Z,1424.00
2019-01-13T08:48:00.594Z,1324.00
2019-01-13T08:49:00.443Z,1480.00
2019-01-13T08:50:00.357Z,1584.00
2019-01-13T08:51:00.237Z,1628.00
2019-01-13T08:52:00.138Z,1396.00
2019-01-13T08:53:00.049Z,1184.00
2019-01-13T08:53:59.934Z,1080.00
2019-01-13T08:54:59.850Z,1100.00
2019-01-13T08:55:59.728Z,1136.00
2019-01-13T08:56:59.626Z,1268.00
2019-01-13T08:57:59.525Z,1612.00
2019-01-13T08:58:59.423Z,1708.00
2019-01-13T08:59:59.347Z,1700.00
2019-01-13T09:00:59.223Z,1428.00
2019-01-13T09:01:59.117Z,1452.00
2019-01-13T09:02:59.019Z,1432.00
2019-01-13T09:03:58.918Z,1508.00
2019-01-13T09:04:58.832Z,1528.00
2019-01-13T09:05:58.712Z,1468.00
2019-01-13T09:06:58.720Z,1500.00
2019-01-13T09:07:58.508Z,1668.00
2019-01-13T09:08:58.409Z,1868.00
2019-01-13T09:09:58.363Z,1844.00
2019-01-13T09:10:58.206Z,1768.00
2019-01-13T09:11:58.103Z,1804.00
2019-01-13T09:12:58.006Z,1664.00
2019-01-13T09:13:57.902Z,1580.00
2019-01-13T09:14:57.816Z,1628.00
2019-01-13T09:15:57.698Z,1656.00
2019-01-13T09:16:57.595Z,1892.00
2019-01-13T09:17:57.498Z,2084.00
2019-01-13T09:18:57.396Z,2140.00
2019-01-13T09:19:57.307Z,2204.00
2019-01-13T09:20:57.309Z,2488.00
2019-01-13T09:21:57.088Z,2492.00
2019-01-13T09:22:56.986Z,2532.00
2019-01-13T09:23:56.884Z,2648.00
2019-01-13T09:24:56.802Z,3384.00
2019-01-13T09:25:56.679Z,3020.00
2019-01-13T09:26:56.706Z,3236.00
2019-01-13T09:27:56.478Z,3044.00
2019-01-13T09:28:56.377Z,2992.00
2019-01-13T09:29:56.288Z,3280.00
2019-01-13T09:30:56.173Z,3224.00
2019-01-13T09:31:56.069Z,3232.00
2019-01-13T09:32:56.004Z,3012.00
2019-01-13T09:33:55.866Z,2860.00
2019-01-13T09:34:55.782Z,2884.00
2019-01-13T09:35:55.666Z,2940.00
2019-01-13T09:36:55.560Z,3056.00
2019-01-13T09:37:55.460Z,2916.00
2019-01-13T09:38:55.359Z,2868.00
2019-01-13T09:39:55.261Z,2648.00
2019-01-13T09:40:55.172Z,2964.00
2019-01-13T09:41:55.054Z,3028.00
2019-01-13T09:42:54.949Z,3252.00
2019-01-13T09:43:54.850Z,3320.00
2019-01-13T09:44:54.748Z,3664.00
2019-01-13T09:45:54.662Z,3652.00
2019-01-13T09:46:54.764Z,3372.00
2019-01-13T09:47:54.441Z,2912.00
2019-01-13T09:48:54.339Z,3124.00
2019-01-13T09:49:56.646Z,3248.00
2019-01-13T09:50:54.151Z,3364.00
2019-01-13T09:51:54.039Z,3208.00
2019-01-13T09:52:53.932Z,3072.00
2019-01-13T09:53:53.932Z,3320.00
2019-01-13T09:54:53.733Z,3168.00
2019-01-13T09:55:53.647Z,3612.00
2019-01-13T09:56:53.532Z,3492.00
2019-01-13T09:57:53.425Z,3268.00
2019-01-13T09:58:53.322Z,3216.00
2019-01-13T09:59:53.223Z,3304.00
2019-01-13T10:00:53.135Z,3060.00
2019-01-13T10:01:53.020Z,3096.00
2019-01-13T10:02:52.916Z,2956.00
2019-01-13T10:03:52.817Z,2808.00
2019-01-13T10:04:52.716Z,2948.00
2019-01-13T10:05:52.630Z,3364.00
2019-01-13T10:06:52.514Z,4004.00
2019-01-13T10:07:52.410Z,4492.00
2019-01-13T10:08:52.310Z,4576.00
2019-01-13T10:09:52.204Z,4584.00
2019-01-13T10:10:52.123Z,4304.00
2019-01-13T10:11:52.006Z,3596.00
2019-01-13T10:12:51.907Z,3276.00
2019-01-13T10:13:51.801Z,3348.00
2019-01-13T10:14:51.703Z,3404.00
2019-01-13T10:15:51.616Z,3724.00
2019-01-13T10:16:51.498Z,3780.00
2019-01-13T10:17:51.392Z,3692.00
2019-01-13T10:18:51.295Z,3832.00
2019-01-13T10:19:51.196Z,3872.00
2019-01-13T10:20:51.208Z,3868.00
2019-01-13T10:21:50.992Z,3856.00
2019-01-13T10:22:50.901Z,3896.00
2019-01-13T10:23:50.786Z,3776.00
2019-01-13T10:24:50.688Z,4204.00
2019-01-13T10:25:50.602Z,3956.00
2019-01-13T10:26:50.589Z,4076.00
2019-01-13T10:27:50.380Z,4300.00
2019-01-13T10:28:50.279Z,4012.00
2019-01-13T10:29:50.182Z,3916.00
2019-01-13T10:30:50.096Z,3732.00
2019-01-13T10:31:49.979Z,3660.00
2019-01-13T10:32:54.719Z,3548.00
2019-01-13T10:33:49.773Z,3444.00
2019-01-13T10:34:49.674Z,3532.00
2019-01-13T10:35:49.586Z,3352.00
2019-01-13T10:36:49.471Z,3468.00
2019-01-13T10:37:49.368Z,3404.00
2019-01-13T10:38:49.270Z,3516.00
2019-01-13T10:39:49.169Z,3236.00
2019-01-13T10:40:49.080Z,3168.00
2019-01-13T10:41:48.970Z,3776.00
2019-01-13T10:42:48.869Z,3624.00
2019-01-13T10:43:48.761Z,3968.00
2019-01-13T10:44:48.660Z,3940.00
2019-01-13T10:45:48.574Z,3836.00
2019-01-13T10:46:48.458Z,3076.00
2019-01-13T10:47:48.360Z,3016.00
2019-01-13T10:48:48.256Z,3756.00
2019-01-13T10:49:48.157Z,4408.00
2019-01-13T10:50:48.094Z,4632.00
2019-01-13T10:51:47.951Z,5228.00
2019-01-13T10:52:47.954Z,5272.00
2019-01-13T10:53:47.749Z,5684.00
2019-01-13T10:54:47.651Z,5660.00
2019-01-13T10:55:47.568Z,5232.00
2019-01-13T10:56:47.446Z,5632.00
2019-01-13T10:57:47.348Z,5120.00
2019-01-13T10:58:47.246Z,5328.00
2019-01-13T10:59:47.250Z,5860.00
2019-01-13T11:00:47.061Z,5468.00
2019-01-13T11:01:46.950Z,5672.00
2019-01-13T11:02:46.840Z,6200.00
2019-01-13T11:03:46.744Z,6700.00
2019-01-13T11:04:46.638Z,6896.00
2019-01-13T11:05:46.558Z,7600.00
2019-01-13T11:06:46.541Z,7144.00
2019-01-13T11:07:46.336Z,7136.00
2019-01-13T11:08:46.234Z,6792.00
2019-01-13T11:09:46.134Z,6992.00
2019-01-13T11:10:46.047Z,7612.00
2019-01-13T11:11:45.942Z,7336.00
2019-01-13T11:12:45.831Z,6524.00
2019-01-13T11:13:45.730Z,6612.00
2019-01-13T11:14:45.633Z,6556.00
2019-01-13T11:15:45.546Z,6824.00
2019-01-13T11:16:45.423Z,7120.00
2019-01-13T11:17:45.328Z,6152.00
2019-01-13T11:18:45.228Z,6536.00
2019-01-13T11:19:45.126Z,5792.00
2019-01-13T11:20:45.039Z,5396.00
2019-01-13T11:21:44.924Z,4828.00
2019-01-13T11:22:44.822Z,4760.00
2019-01-13T11:23:44.721Z,4860.00
2019-01-13T11:24:44.616Z,4808.00
2019-01-13T11:25:44.521Z,4936.00
2019-01-13T11:26:44.434Z,5424.00
2019-01-13T11:27:44.315Z,4532.00
2019-01-13T11:28:44.214Z,4864.00
2019-01-13T11:29:44.111Z,5308.00
2019-01-13T11:30:44.013Z,5224.00
2019-01-13T11:31:43.927Z,4988.00
2019-01-13T11:32:43.809Z,4596.00
2019-01-13T11:33:43.812Z,4300.00
2019-01-13T11:34:43.613Z,4352.00
2019-01-13T11:35:43.512Z,3884.00
2019-01-13T11:36:43.426Z,3820.00
2019-01-13T11:37:43.305Z,3720.00
2019-01-13T11:38:43.205Z,3812.00
2019-01-13T11:39:43.121Z,4144.00
2019-01-13T11:40:43.124Z,3796.00
2019-01-13T11:41:42.917Z,3928.00
2019-01-13T11:42:42.799Z,4096.00
2019-01-13T11:43:42.702Z,4880.00
2019-01-13T11:44:42.601Z,4592.00
2019-01-13T11:45:42.506Z,4476.00
2019-01-13T11:46:42.515Z,4212.00
2019-01-13T11:47:42.294Z,4060.00
2019-01-13T11:48:42.193Z,3804.00
2019-01-13T11:49:42.095Z,3908.00
2019-01-13T11:50:41.995Z,3548.00
2019-01-13T11:51:41.906Z,3520.00
2019-01-13T11:52:41.790Z,3600.00
2019-01-13T11:53:41.690Z,3908.00
2019-01-13T11:54:41.586Z,4020.00
2019-01-13T11:55:41.546Z,4008.00
2019-01-13T11:56:41.402Z,3880.00
2019-01-13T11:57:41.282Z,3852.00
2019-01-13T11:58:41.182Z,3696.00
2019-01-13T11:59:41.086Z,3508.00
2019-01-13T12:00:41.082Z,3472.00
2019-01-13T12:01:40.897Z,3496.00
2019-01-13T12:02:40.783Z,3428.00
2019-01-13T12:03:40.680Z,3320.00
2019-01-13T12:04:40.579Z,3088.00
2019-01-13T12:05:40.478Z,3340.00
2019-01-13T12:06:40.391Z,3296.00
2019-01-13T12:07:40.279Z,3172.00
2019-01-13T12:08:40.170Z,3168.00
2019-01-13T12:09:40.073Z,3472.00
2019-01-13T12:10:39.970Z,3804.00
2019-01-13T12:11:39.889Z,3308.00
2019-01-13T12:12:39.768Z,3540.00
2019-01-13T12:13:39.668Z,3608.00
2019-01-13T12:14:39.633Z,3224.00
2019-01-13T12:15:39.468Z,3404.00
2019-01-13T12:16:39.380Z,3240.00
2019-01-13T12:17:39.263Z,2956.00
2019-01-13T12:18:40.604Z,3392.00
2019-01-13T12:19:39.062Z,3224.00
2019-01-13T12:20:38.961Z,2912.00
2019-01-13T12:21:38.872Z,2680.00
2019-01-13T12:22:38.754Z,2724.00
2019-01-13T12:23:38.655Z,3008.00
2019-01-13T12:24:38.551Z,2852.00
2019-01-13T12:25:38.449Z,2932.00
2019-01-13T12:26:38.392Z,3016.00
2019-01-13T12:27:38.355Z,3056.00
2019-01-13T12:28:38.147Z,3260.00
2019-01-13T12:29:38.047Z,3820.00
2019-01-13T12:30:37.945Z,3852.00
2019-01-13T12:31:37.859Z,3960.00
2019-01-13T12:32:37.745Z,4052.00
2019-01-13T12:33:37.644Z,3560.00
2019-01-13T12:34:37.641Z,3728.00
2019-01-13T12:35:37.441Z,3544.00
2019-01-13T12:36:37.355Z,3800.00
2019-01-13T12:37:37.239Z,3576.00
2019-01-13T12:38:37.135Z,3292.00
2019-01-13T12:39:37.035Z,3400.00
2019-01-13T12:40:36.934Z,3476.00
2019-01-13T12:41:36.848Z,3500.00
2019-01-13T12:42:36.728Z,3540.00
2019-01-13T12:43:36.630Z,3444.00
2019-01-13T12:44:36.525Z,3392.00